Time;durP1;ratioP1;P1;durP2;ratioP2;P2;SDS_P1;SDS_P2;PMS_P1;PMS_P2;Temp;Humidity;BMP_temperature;BMP_pressure;BME280_temperature;BME280_humidity;BME280_pressure;Samples;Min_cycle;Max_cycle;Signal;HPM_P1;HPM_P2
2022/03/14 00:00:44;;;;;;;9.55;5.65;;;11.20;99.90;;;;;;5056490;28;20412;-45
2022/03/14 00:03:12;;;;;;;9.80;6.00;;;10.70;99.90;;;;;;5055732;28;20048;-44
2022/03/14 00:05:38;;;;;;;9.38;6.05;;;10.60;99.90;;;;;;5056590;28;20045;-41
2022/03/14 00:08:06;;;;;;;10.38;5.80;;;10.70;99.90;;;;;;5056736;28;20048;-43
2022/03/14 00:10:34;;;;;;;10.38;6.00;;;10.70;99.90;;;;;;5050123;28;20053;-40
2022/03/14 00:13:01;;;;;;;8.13;5.45;;;10.70;99.90;;;;;;5055102;28;20484;-41
2022/03/14 00:15:32;;;;;;;9.82;5.90;;;10.60;99.90;;;;;;5056411;28;20032;-41
2022/03/14 00:18:01;;;;;;;8.65;5.35;;;10.60;99.90;;;;;;5055726;28;20044;-41
2022/03/14 00:20:28;;;;;;;9.23;5.35;;;10.60;99.90;;;;;;5054589;28;20116;-40
2022/03/14 00:22:53;;;;;;;7.05;4.95;;;10.60;99.90;;;;;;5056382;28;20051;-41
2022/03/14 00:25:19;;;;;;;10.25;5.18;;;10.60;99.90;;;;;;5053248;28;20040;-42
2022/03/14 00:27:45;;;;;;;7.47;4.85;;;10.60;99.90;;;;;;5056252;28;20078;-41
2022/03/14 00:30:12;;;;;;;7.60;4.80;;;10.60;99.90;;;;;;5055903;28;20032;-42
2022/03/14 00:32:39;;;;;;;7.80;5.03;;;10.60;99.90;;;;;;5055751;28;20041;-40
2022/03/14 00:35:07;;;;;;;7.65;4.65;;;10.60;99.90;;;;;;5053328;28;20048;-42
2022/03/14 00:37:33;;;;;;;10.73;5.28;;;10.60;99.90;;;;;;5052051;28;20139;-39
2022/03/14 00:40:00;;;;;;;7.80;4.40;;;10.60;99.90;;;;;;5052866;28;20049;-40
2022/03/14 00:42:25;;;;;;;7.63;4.88;;;10.60;99.90;;;;;;5052898;28;20114;-42
2022/03/14 00:44:52;;;;;;;8.23;4.50;;;10.70;99.90;;;;;;5051341;28;20045;-41
2022/03/14 00:47:19;;;;;;;6.25;3.90;;;10.70;99.90;;;;;;5052757;28;20037;-42
2022/03/14 00:49:46;;;;;;;7.22;4.13;;;10.70;99.90;;;;;;5049994;28;20648;-41
2022/03/14 00:52:12;;;;;;;6.15;3.85;;;10.80;99.90;;;;;;5052550;28;20041;-41
2022/03/14 00:54:38;;;;;;;6.82;4.30;;;10.80;99.90;;;;;;5052347;28;20529;-40
2022/03/14 00:57:05;;;;;;;6.07;3.88;;;10.80;99.90;;;;;;5052659;28;20029;-43
2022/03/14 00:59:31;;;;;;;6.70;3.70;;;10.80;99.90;;;;;;5052418;28;20388;-45
2022/03/14 01:01:57;;;;;;;6.95;3.90;;;10.80;99.90;;;;;;5051705;28;20045;-43
2022/03/14 01:04:22;;;;;;;5.70;3.75;;;10.80;99.90;;;;;;5052439;28;20052;-42
2022/03/14 01:06:48;;;;;;;6.30;3.72;;;10.80;99.90;;;;;;5050455;28;20152;-46
2022/03/14 01:09:15;;;;;;;5.80;3.67;;;10.80;99.90;;;;;;5052195;28;20045;-41
2022/03/14 01:11:44;;;;;;;6.50;3.75;;;10.90;99.90;;;;;;5052544;28;20048;-41
2022/03/14 01:14:11;;;;;;;5.78;4.00;;;10.90;99.90;;;;;;5052387;28;20047;-42
2022/03/14 01:16:37;;;;;;;5.22;3.40;;;10.90;99.90;;;;;;5052155;28;20048;-42
2022/03/14 01:19:07;;;;;;;6.63;3.70;;;10.80;99.90;;;;;;5051941;28;20119;-44
2022/03/14 01:21:32;;;;;;;8.25;3.72;;;10.90;99.90;;;;;;5051922;28;20037;-41
2022/03/14 01:23:59;;;;;;;7.18;3.90;;;10.80;99.90;;;;;;5051991;28;20385;-42
2022/03/14 01:26:25;;;;;;;6.57;3.85;;;10.80;99.90;;;;;;5052218;28;20110;-41
2022/03/14 01:28:50;;;;;;;5.85;3.80;;;10.90;99.90;;;;;;5050972;28;20029;-42
2022/03/14 01:31:18;;;;;;;6.05;3.33;;;10.80;99.90;;;;;;5052020;28;20041;-44
2022/03/14 01:33:44;;;;;;;5.45;3.42;;;10.80;99.90;;;;;;5051517;28;20124;-41
2022/03/14 01:36:09;;;;;;;5.35;3.35;;;10.70;99.90;;;;;;5051501;28;20112;-42
2022/03/14 01:38:35;;;;;;;5.72;3.53;;;10.70;99.90;;;;;;5051386;28;20060;-43
2022/03/14 01:41:01;;;;;;;7.10;4.13;;;10.70;99.90;;;;;;5050125;28;20061;-41
2022/03/14 01:43:26;;;;;;;5.97;3.65;;;10.80;99.90;;;;;;5051814;28;20095;-41
2022/03/14 01:45:59;;;;;;;7.50;3.63;;;10.70;99.90;;;;;;5051770;28;20120;-41
2022/03/14 01:48:25;;;;;;;6.40;4.10;;;10.70;99.90;;;;;;5051171;28;20120;-43
2022/03/14 01:50:54;;;;;;;6.45;3.88;;;10.70;99.90;;;;;;5051569;28;20049;-42
2022/03/14 01:53:20;;;;;;;7.45;4.40;;;10.80;99.90;;;;;;5050267;28;20045;-42
2022/03/14 01:55:48;;;;;;;7.40;4.03;;;10.80;99.90;;;;;;5051720;28;20040;-42
2022/03/14 01:58:15;;;;;;;7.95;3.85;;;10.70;99.90;;;;;;5051241;28;20033;-41
2022/03/14 02:00:42;;;;;;;6.10;3.60;;;10.80;99.90;;;;;;5051397;28;20075;-43
2022/03/14 02:03:07;;;;;;;6.15;3.78;;;10.80;99.90;;;;;;5049357;28;20048;-42
2022/03/14 02:05:37;;;;;;;6.43;3.50;;;10.70;99.90;;;;;;5051105;28;20036;-40
2022/03/14 02:08:06;;;;;;;5.93;3.63;;;10.80;99.90;;;;;;5050672;28;20033;-43
2022/03/14 02:10:34;;;;;;;7.32;3.85;;;10.70;99.90;;;;;;5049415;28;20040;-40
2022/03/14 02:13:07;;;;;;;4.75;3.20;;;10.70;99.90;;;;;;5049555;28;20076;-41
2022/03/14 02:15:33;;;;;;;6.38;3.50;;;10.70;99.90;;;;;;5051155;28;20041;-41
2022/03/14 02:18:00;;;;;;;6.35;3.92;;;10.70;99.90;;;;;;5048167;28;20439;-41
2022/03/14 02:20:25;;;;;;;5.35;3.40;;;10.70;99.90;;;;;;5050642;28;20036;-42
2022/03/14 02:22:52;;;;;;;7.15;3.58;;;10.70;99.90;;;;;;5050903;28;20037;-42
2022/03/14 02:25:17;;;;;;;6.45;3.67;;;10.60;99.90;;;;;;5050619;28;20044;-41
2022/03/14 02:27:43;;;;;;;5.35;3.50;;;10.60;99.90;;;;;;5050764;28;20041;-41
2022/03/14 02:30:09;;;;;;;5.70;3.35;;;10.60;99.90;;;;;;5050650;28;20037;-41
2022/03/14 02:32:40;;;;;;;5.95;3.15;;;10.60;99.90;;;;;;5050257;28;20059;-40
2022/03/14 02:35:08;;;;;;;4.97;3.08;;;10.60;99.90;;;;;;5050845;28;20041;-45
2022/03/14 02:37:34;;;;;;;6.68;3.33;;;10.60;99.90;;;;;;5032305;28;20060;-42
2022/03/14 02:39:59;;;;;;;4.88;2.95;;;10.60;99.90;;;;;;5050669;28;20044;-39
2022/03/14 02:42:25;;;;;;;5.88;3.03;;;10.60;99.90;;;;;;5050788;28;20412;-43
2022/03/14 02:44:51;;;;;;;6.13;3.20;;;10.60;99.90;;;;;;5049965;28;20045;-41
2022/03/14 02:47:17;;;;;;;4.78;3.00;;;10.60;99.90;;;;;;5050324;28;20037;-41
2022/03/14 02:49:42;;;;;;;4.72;2.90;;;10.50;99.90;;;;;;5050219;28;20132;-43
2022/03/14 02:52:08;;;;;;;5.45;3.35;;;10.50;99.90;;;;;;5050173;28;20041;-41
2022/03/14 02:54:34;;;;;;;5.47;3.20;;;10.50;99.90;;;;;;5050338;28;20420;-45
2022/03/14 02:57:00;;;;;;;4.85;2.80;;;10.50;99.90;;;;;;5048794;28;20484;-44
2022/03/14 02:59:26;;;;;;;6.03;2.70;;;10.50;99.90;;;;;;5049753;28;20033;-41
2022/03/14 03:01:52;;;;;;;6.18;3.10;;;10.50;99.90;;;;;;5065375;28;20063;-43
2022/03/14 03:04:17;;;;;;;4.60;2.90;;;10.40;99.90;;;;;;5049688;28;20060;-42
2022/03/14 03:06:44;;;;;;;4.85;2.90;;;10.40;99.90;;;;;;5048566;28;20123;-42
2022/03/14 03:09:10;;;;;;;5.82;2.95;;;10.40;99.90;;;;;;5049616;28;20476;-45
2022/03/14 03:11:36;;;;;;;4.85;3.00;;;10.40;99.90;;;;;;5050214;28;20048;-45
2022/03/14 03:14:03;;;;;;;3.92;2.40;;;10.40;99.90;;;;;;5050028;28;20119;-41
2022/03/14 03:16:29;;;;;;;4.15;2.60;;;10.40;99.90;;;;;;5050402;28;20060;-41
2022/03/14 03:18:55;;;;;;;4.38;2.40;;;10.30;99.90;;;;;;5050362;28;20083;-45
2022/03/14 03:21:21;;;;;;;5.97;2.55;;;10.30;99.90;;;;;;5050278;28;20060;-41
2022/03/14 03:23:47;;;;;;;4.25;2.30;;;10.30;99.90;;;;;;5050194;28;20061;-41
2022/03/14 03:26:13;;;;;;;4.82;2.75;;;10.30;99.90;;;;;;5050204;28;20079;-42
2022/03/14 03:28:39;;;;;;;4.15;2.38;;;10.30;99.90;;;;;;5049011;28;20549;-42
2022/03/14 03:31:10;;;;;;;3.70;2.03;;;10.30;99.90;;;;;;5047265;28;20048;-42
2022/03/14 03:33:37;;;;;;;4.03;2.30;;;10.30;99.90;;;;;;5046412;28;20063;-42
2022/03/14 03:36:04;;;;;;;3.80;2.38;;;10.20;99.90;;;;;;5046938;28;20056;-40
2022/03/14 03:38:30;;;;;;;3.65;2.17;;;10.20;99.90;;;;;;5061424;28;20518;-43
2022/03/14 03:40:56;;;;;;;4.03;2.20;;;10.20;99.90;;;;;;5048790;28;20044;-41
2022/03/14 03:43:22;;;;;;;4.10;2.20;;;10.20;99.90;;;;;;5048092;28;20484;-42
2022/03/14 03:45:48;;;;;;;4.63;2.13;;;10.20;99.90;;;;;;5050110;28;20037;-44
2022/03/14 03:48:14;;;;;;;3.72;2.08;;;10.20;99.90;;;;;;5049705;28;20037;-41
2022/03/14 03:50:40;;;;;;;3.75;2.00;;;10.10;99.90;;;;;;5049270;28;20489;-40
2022/03/14 03:53:06;;;;;;;4.13;2.17;;;10.10;99.90;;;;;;5049687;28;20033;-42
2022/03/14 03:55:31;;;;;;;4.43;2.00;;;10.10;99.90;;;;;;5049910;28;20029;-40
2022/03/14 03:57:57;;;;;;;4.38;1.90;;;10.10;99.90;;;;;;5049657;28;20045;-43
2022/03/14 04:00:24;;;;;;;3.33;1.92;;;10.10;99.90;;;;;;5049314;28;20065;-45
2022/03/14 04:02:50;;;;;;;3.92;2.03;;;10.10;99.90;;;;;;5048989;28;20135;-42
2022/03/14 04:05:16;;;;;;;3.05;1.65;;;10.00;99.90;;;;;;5049482;28;20124;-41
2022/03/14 04:07:43;;;;;;;5.03;2.08;;;10.00;99.90;;;;;;5049719;28;20095;-42
2022/03/14 04:10:12;;;;;;;3.95;2.10;;;10.00;99.90;;;;;;5045994;28;20041;-41
2022/03/14 04:12:39;;;;;;;3.55;1.92;;;10.00;99.90;;;;;;5050968;28;20040;-43
2022/03/14 04:15:09;;;;;;;5.63;2.30;;;10.00;99.90;;;;;;5053612;28;20045;-41
2022/03/14 04:17:38;;;;;;;3.88;2.15;;;10.00;99.90;;;;;;5053528;28;20086;-42
2022/03/14 04:20:06;;;;;;;3.75;2.20;;;10.00;99.90;;;;;;5053429;28;20041;-44
2022/03/14 04:22:32;;;;;;;3.60;2.28;;;10.00;99.90;;;;;;5053274;28;20048;-41
2022/03/14 04:24:59;;;;;;;3.92;2.10;;;10.00;99.90;;;;;;5068413;28;20156;-41
2022/03/14 04:27:25;;;;;;;4.40;2.35;;;10.00;99.90;;;;;;5053389;28;20329;-41
2022/03/14 04:29:51;;;;;;;3.67;2.08;;;10.00;99.90;;;;;;5053386;28;20162;-40
2022/03/14 04:32:17;;;;;;;3.47;1.90;;;9.90;99.90;;;;;;5052607;28;20029;-42
2022/03/14 04:34:44;;;;;;;3.63;1.90;;;9.90;99.90;;;;;;5053267;28;20035;-40
2022/03/14 04:37:11;;;;;;;3.78;2.30;;;10.00;99.90;;;;;;5053029;28;20086;-43
2022/03/14 04:39:37;;;;;;;4.15;2.30;;;9.90;99.90;;;;;;5051827;28;20053;-42
2022/03/14 04:42:03;;;;;;;4.60;2.47;;;9.80;99.90;;;;;;5049142;28;20102;-41
2022/03/14 04:44:29;;;;;;;4.50;2.50;;;9.90;99.90;;;;;;5052683;28;20048;-42
2022/03/14 04:46:54;;;;;;;4.53;2.30;;;10.00;99.90;;;;;;5052421;28;20033;-42
2022/03/14 04:49:20;;;;;;;4.38;2.47;;;10.00;99.90;;;;;;5052966;28;20047;-42
2022/03/14 04:51:50;;;;;;;4.70;2.78;;;9.90;99.90;;;;;;5052590;28;20055;-44
2022/03/14 04:54:16;;;;;;;4.75;3.00;;;10.00;99.90;;;;;;5052588;28;20044;-42
2022/03/14 04:56:41;;;;;;;3.88;2.22;;;9.90;99.90;;;;;;5052357;28;20047;-43
2022/03/14 04:59:07;;;;;;;6.97;2.70;;;10.00;99.90;;;;;;5052599;28;20472;-41
2022/03/14 05:01:33;;;;;;;5.18;3.00;;;10.00;99.90;;;;;;5052182;28;20488;-41
2022/03/14 05:03:59;;;;;;;4.88;2.97;;;10.00;99.90;;;;;;5052169;28;20091;-41
2022/03/14 05:06:24;;;;;;;4.80;2.72;;;10.00;99.90;;;;;;5052340;28;20458;-44
2022/03/14 05:08:50;;;;;;;4.85;2.90;;;9.90;99.90;;;;;;5052674;28;20043;-41
2022/03/14 05:11:16;;;;;;;5.55;3.00;;;9.90;99.90;;;;;;5052136;28;20040;-41
2022/03/14 05:13:42;;;;;;;4.55;3.00;;;9.90;99.90;;;;;;5052039;28;20037;-41
2022/03/14 05:16:08;;;;;;;5.38;2.72;;;9.90;99.90;;;;;;5052002;28;20043;-40
2022/03/14 05:18:34;;;;;;;5.00;3.05;;;9.90;99.90;;;;;;5052245;28;20095;-43
2022/03/14 05:21:00;;;;;;;5.03;2.67;;;9.90;99.90;;;;;;5052203;28;20110;-41
2022/03/14 05:23:28;;;;;;;4.75;2.90;;;9.90;99.90;;;;;;5051326;28;20048;-43
2022/03/14 05:25:54;;;;;;;5.35;3.22;;;9.80;99.90;;;;;;5051944;28;20033;-41
2022/03/14 05:28:20;;;;;;;14.13;4.10;;;9.80;99.90;;;;;;5051660;28;20040;-43
2022/03/14 05:30:45;;;;;;;6.28;3.40;;;9.70;99.90;;;;;;5052070;28;20056;-42
2022/03/14 05:33:11;;;;;;;5.07;3.15;;;9.70;99.90;;;;;;5051150;28;20061;-38
2022/03/14 05:35:37;;;;;;;6.38;3.40;;;9.80;99.90;;;;;;5051128;28;20049;-44
2022/03/14 05:38:04;;;;;;;6.03;3.40;;;9.70;99.90;;;;;;5050559;28;20136;-44
2022/03/14 05:40:30;;;;;;;4.82;3.13;;;9.70;99.90;;;;;;5051932;28;20132;-40
2022/03/14 05:42:56;;;;;;;7.03;3.55;;;9.70;99.90;;;;;;5051510;28;20048;-41
2022/03/14 05:45:22;;;;;;;6.28;4.07;;;9.70;99.90;;;;;;5051839;28;20047;-41
2022/03/14 05:47:48;;;;;;;5.20;3.50;;;9.70;99.90;;;;;;5051641;28;20488;-44
2022/03/14 05:50:15;;;;;;;7.72;4.18;;;9.70;99.90;;;;;;5051664;28;20047;-42
2022/03/14 05:52:41;;;;;;;5.28;3.78;;;9.70;99.90;;;;;;5051884;28;20171;-42
2022/03/14 05:55:08;;;;;;;8.77;3.80;;;9.70;99.90;;;;;;5051383;28;20112;-43
2022/03/14 05:57:34;;;;;;;5.63;3.60;;;9.70;99.90;;;;;;5050371;28;20045;-42
2022/03/14 06:00:00;;;;;;;6.40;4.00;;;9.70;99.90;;;;;;5051254;28;20033;-43
2022/03/14 06:02:26;;;;;;;7.13;4.32;;;9.70;99.90;;;;;;5051168;28;20370;-43
2022/03/14 06:04:53;;;;;;;5.32;3.85;;;9.70;99.90;;;;;;5051284;28;20166;-42
2022/03/14 06:07:21;;;;;;;7.72;3.97;;;9.80;99.90;;;;;;5051236;28;20040;-41
2022/03/14 06:09:50;;;;;;;7.43;4.28;;;9.70;99.90;;;;;;5033184;28;20040;-43
2022/03/14 06:12:25;;;;;;;7.50;4.05;;;9.70;99.90;;;;;;5049691;28;20036;-43
2022/03/14 06:15:02;;;;;;;7.63;3.70;;;9.80;99.90;;;;;;5051129;28;20169;-45
2022/03/14 06:17:27;;;;;;;6.78;4.13;;;9.70;99.90;;;;;;5051332;28;20037;-41
2022/03/14 06:19:53;;;;;;;6.70;4.30;;;9.70;99.90;;;;;;5051092;28;20029;-41
2022/03/14 06:22:21;;;;;;;6.88;4.47;;;9.60;99.90;;;;;;5049470;28;20048;-43
2022/03/14 06:24:48;;;;;;;6.53;4.18;;;9.70;99.90;;;;;;5051170;28;20112;-40
2022/03/14 06:27:18;;;;;;;8.13;4.50;;;9.60;99.90;;;;;;5050931;28;20033;-42
2022/03/14 06:29:45;;;;;;;6.88;4.43;;;9.60;99.90;;;;;;5050598;28;20086;-41
2022/03/14 06:32:11;;;;;;;7.75;4.90;;;9.70;99.90;;;;;;5050668;28;20040;-43
2022/03/14 06:34:38;;;;;;;7.43;4.85;;;9.70;99.90;;;;;;5049697;28;20091;-41
2022/03/14 06:37:06;;;;;;;8.85;5.05;;;9.60;99.90;;;;;;5050683;28;20037;-40
2022/03/14 06:39:32;;;;;;;7.85;4.75;;;9.60;99.90;;;;;;5065554;28;20203;-42
2022/03/14 06:42:00;;;;;;;7.90;5.07;;;9.50;99.90;;;;;;5050658;28;20497;-43
2022/03/14 06:44:27;;;;;;;9.55;5.75;;;9.60;99.90;;;;;;5050362;28;20049;-46
2022/03/14 06:46:54;;;;;;;10.13;6.47;;;9.50;99.90;;;;;;5065824;28;20044;-42
2022/03/14 06:49:20;;;;;;;12.38;8.32;;;9.60;99.90;;;;;;5050281;28;20036;-43
2022/03/14 06:51:46;;;;;;;13.18;9.13;;;9.60;99.90;;;;;;5050566;28;20599;-41
2022/03/14 06:54:12;;;;;;;11.80;8.68;;;9.60;99.90;;;;;;5050192;28;20052;-40
2022/03/14 06:56:38;;;;;;;12.00;9.00;;;9.60;99.90;;;;;;5050156;28;20048;-43
2022/03/14 06:59:04;;;;;;;12.85;9.52;;;9.70;99.90;;;;;;5050230;28;20044;-43
2022/03/14 07:01:30;;;;;;;11.38;8.77;;;9.70;99.90;;;;;;5050513;28;20567;-41
2022/03/14 07:03:59;;;;;;;12.70;9.43;;;9.70;99.90;;;;;;5048840;28;20171;-39
2022/03/14 07:06:24;;;;;;;12.48;8.70;;;9.60;99.90;;;;;;5050442;28;20058;-40
2022/03/14 07:08:50;;;;;;;12.93;9.52;;;9.70;99.90;;;;;;5048940;28;20045;-41
2022/03/14 07:11:16;;;;;;;13.43;8.90;;;9.70;99.90;;;;;;5047474;28;20067;-45
2022/03/14 07:13:41;;;;;;;12.00;8.65;;;9.60;99.90;;;;;;5050194;28;20028;-41
2022/03/14 07:16:07;;;;;;;13.18;8.43;;;9.60;99.90;;;;;;5048456;28;20369;-42
2022/03/14 07:18:34;;;;;;;10.98;8.07;;;9.70;99.90;;;;;;5063782;28;20116;-43
2022/03/14 07:21:00;;;;;;;13.55;8.50;;;9.60;99.90;;;;;;5049984;28;20036;-40
2022/03/14 07:23:26;;;;;;;12.07;8.50;;;9.70;99.90;;;;;;5050065;28;20099;-41
2022/03/14 07:25:52;;;;;;;13.45;8.10;;;9.60;99.90;;;;;;5049808;28;20110;-42
2022/03/14 07:28:18;;;;;;;10.98;7.22;;;9.60;99.90;;;;;;5050168;28;20055;-41
2022/03/14 07:30:44;;;;;;;10.85;7.80;;;9.60;99.90;;;;;;5043640;28;20453;-42
2022/03/14 07:33:10;;;;;;;10.25;7.25;;;9.60;99.90;;;;;;5046626;28;20037;-44
2022/03/14 07:35:36;;;;;;;9.38;6.90;;;9.60;99.90;;;;;;5046551;28;20088;-41
2022/03/14 07:38:03;;;;;;;10.68;7.15;;;9.60;99.90;;;;;;5049603;28;20045;-40
2022/03/14 07:40:29;;;;;;;11.35;7.60;;;9.50;99.90;;;;;;5045890;28;20045;-40
2022/03/14 07:42:59;;;;;;;9.95;7.78;;;9.60;99.90;;;;;;5039990;28;20056;-43
2022/03/14 07:45:26;;;;;;;12.88;8.43;;;9.50;99.90;;;;;;5038233;28;20049;-42
2022/03/14 07:47:54;;;;;;;13.50;9.85;;;9.40;99.90;;;;;;5044306;28;20033;-40
2022/03/14 07:50:20;;;;;;;13.30;10.02;;;9.40;99.90;;;;;;5043235;28;20080;-43
2022/03/14 07:52:47;;;;;;;16.52;12.00;;;9.30;99.90;;;;;;5043771;28;20080;-41
2022/03/14 07:55:14;;;;;;;17.73;12.23;;;9.50;99.90;;;;;;5044044;28;20039;-41
2022/03/14 07:57:40;;;;;;;18.25;13.00;;;9.40;99.90;;;;;;5042545;28;20021;-40
2022/03/14 08:00:11;;;;;;;17.45;12.52;;;9.40;99.90;;;;;;5043154;28;20033;-44
2022/03/14 08:02:37;;;;;;;19.63;14.13;;;9.40;99.90;;;;;;5043056;28;20041;-44
2022/03/14 08:05:04;;;;;;;20.83;14.07;;;9.30;99.90;;;;;;5043969;28;20033;-43
2022/03/14 08:07:30;;;;;;;21.10;13.43;;;9.20;99.90;;;;;;5044871;28;20045;-39
2022/03/14 08:09:56;;;;;;;20.55;14.55;;;9.30;99.90;;;;;;5044648;28;20051;-40
2022/03/14 08:12:22;;;;;;;22.65;14.57;;;9.30;99.90;;;;;;5044999;28;20439;-41
2022/03/14 08:14:51;;;;;;;23.92;15.73;;;9.20;99.90;;;;;;5043092;28;20029;-43
2022/03/14 08:17:18;;;;;;;23.67;15.85;;;9.30;99.90;;;;;;5043223;28;20071;-42
2022/03/14 08:19:44;;;;;;;25.15;17.30;;;9.20;99.90;;;;;;5044259;28;20068;-41
2022/03/14 08:22:10;;;;;;;25.60;16.70;;;8.90;99.90;;;;;;5044407;28;20040;-41
2022/03/14 08:24:36;;;;;;;23.55;14.98;;;9.20;99.90;;;;;;5044201;28;20044;-42
2022/03/14 08:27:02;;;;;;;26.17;14.93;;;9.10;99.90;;;;;;5043376;28;20040;-43
2022/03/14 08:29:28;;;;;;;22.75;13.63;;;9.00;99.90;;;;;;5044517;28;20045;-41
2022/03/14 08:31:57;;;;;;;21.48;13.75;;;9.00;99.90;;;;;;5044672;28;20047;-41
2022/03/14 08:34:22;;;;;;;27.67;14.57;;;8.90;99.90;;;;;;5045000;28;20023;-40
2022/03/14 08:36:48;;;;;;;29.92;14.38;;;8.70;99.90;;;;;;5045223;28;20033;-41
2022/03/14 08:39:14;;;;;;;25.48;15.10;;;8.60;99.90;;;;;;5042503;28;20047;-44
2022/03/14 08:41:40;;;;;;;21.90;14.77;;;8.70;99.90;;;;;;5043239;28;20040;-41
2022/03/14 08:44:09;;;;;;;23.10;14.18;;;8.80;99.90;;;;;;5043629;28;20055;-41
2022/03/14 08:46:35;;;;;;;19.27;12.23;;;8.60;99.90;;;;;;5044447;28;20029;-39
2022/03/14 08:49:01;;;;;;;24.65;13.93;;;8.80;99.90;;;;;;5042023;28;20119;-41
2022/03/14 08:51:27;;;;;;;26.70;13.40;;;8.60;99.90;;;;;;5041347;28;20044;-43
2022/03/14 08:53:54;;;;;;;22.67;12.25;;;8.60;99.90;;;;;;5044359;28;20104;-41
2022/03/14 08:56:20;;;;;;;19.40;9.93;;;8.60;99.90;;;;;;5041105;28;20048;-42
2022/03/14 08:58:46;;;;;;;18.23;8.18;;;8.70;99.90;;;;;;5039610;28;20041;-47
2022/03/14 09:01:12;;;;;;;16.25;8.40;;;8.80;99.90;;;;;;5038758;28;20091;-39
2022/03/14 09:03:38;;;;;;;17.50;8.38;;;8.70;99.90;;;;;;5042019;28;20591;-42
2022/03/14 09:06:05;;;;;;;15.52;8.20;;;8.80;99.90;;;;;;5043556;28;20403;-44
2022/03/14 09:08:32;;;;;;;20.05;7.50;;;9.00;99.90;;;;;;5040663;28;21345;-41
2022/03/14 09:11:01;;;;;;;17.50;7.30;;;8.90;99.90;;;;;;5041619;28;20499;-43
2022/03/14 09:13:28;;;;;;;17.98;7.28;;;8.90;99.90;;;;;;5041655;28;20353;-44
2022/03/14 09:15:54;;;;;;;18.48;6.55;;;9.00;99.90;;;;;;5040680;28;20456;-40
2022/03/14 09:18:21;;;;;;;13.77;5.65;;;9.00;99.90;;;;;;5038046;28;20595;-42
2022/03/14 09:20:49;;;;;;;13.35;5.20;;;9.30;99.90;;;;;;5038754;28;20532;-41
2022/03/14 09:23:20;;;;;;;10.82;4.32;;;9.20;99.90;;;;;;5041401;28;20037;-44
2022/03/14 09:25:47;;;;;;;13.70;5.53;;;9.30;99.90;;;;;;5042860;28;20082;-40
2022/03/14 09:28:14;;;;;;;10.13;3.83;;;9.30;99.90;;;;;;5042996;28;20037;-39
2022/03/14 09:30:39;;;;;;;11.13;4.10;;;9.40;99.90;;;;;;5041851;28;20128;-42
2022/03/14 09:33:05;;;;;;;10.18;4.30;;;9.40;99.90;;;;;;5040024;28;20132;-44
2022/03/14 09:35:33;;;;;;;9.93;3.90;;;9.50;99.90;;;;;;5043335;28;20396;-43
2022/03/14 09:38:00;;;;;;;9.88;3.72;;;9.50;99.90;;;;;;5043103;28;20053;-43
2022/03/14 09:40:28;;;;;;;12.52;3.28;;;9.50;99.90;;;;;;5042699;28;20040;-40
2022/03/14 09:42:55;;;;;;;8.68;3.45;;;9.30;99.90;;;;;;5040461;28;20045;-40
2022/03/14 09:45:22;;;;;;;10.50;3.67;;;9.50;99.90;;;;;;5039572;28;20087;-45
2022/03/14 09:48:08;;;;;;;13.75;3.50;;;9.40;99.90;;;;;;5037647;28;20099;-40
2022/03/14 09:50:41;;;;;;;14.25;3.53;;;9.50;99.90;;;;;;5042947;28;20059;-40
2022/03/14 09:53:12;;;;;;;12.88;3.30;;;9.40;99.90;;;;;;5035745;28;20052;-41
2022/03/14 09:55:41;;;;;;;11.60;4.07;;;9.40;99.90;;;;;;5042088;28;20028;-45
2022/03/14 09:58:12;;;;;;;12.65;3.60;;;9.40;99.90;;;;;;5041251;28;20032;-43
2022/03/14 10:00:38;;;;;;;13.43;3.55;;;9.50;99.90;;;;;;5041341;28;20040;-42
2022/03/14 10:03:04;;;;;;;12.60;3.67;;;9.40;99.90;;;;;;5041601;28;20041;-43
2022/03/14 10:05:30;;;;;;;11.85;3.45;;;9.50;99.90;;;;;;5041935;28;20258;-42
2022/03/14 10:07:56;;;;;;;12.32;3.55;;;9.70;99.90;;;;;;5040491;28;20036;-41
2022/03/14 10:10:22;;;;;;;11.98;3.63;;;9.80;99.90;;;;;;5039645;28;20392;-43
2022/03/14 10:12:58;;;;;;;16.92;3.75;;;9.90;99.90;;;;;;5036215;28;20630;-41
2022/03/14 10:15:25;;;;;;;11.57;4.53;;;9.90;99.90;;;;;;5037867;28;20921;-42
2022/03/14 10:17:54;;;;;;;14.35;4.30;;;10.10;99.90;;;;;;5040020;28;20633;-40
2022/03/14 10:20:21;;;;;;;8.82;3.33;;;10.00;99.90;;;;;;5039605;28;20064;-40
2022/03/14 10:22:49;;;;;;;12.40;3.97;;;10.00;99.90;;;;;;5039639;28;20148;-41
2022/03/14 10:25:19;;;;;;;13.55;3.47;;;10.20;99.90;;;;;;5041450;28;20625;-41
2022/03/14 10:27:51;;;;;;;9.82;3.63;;;10.10;99.90;;;;;;5040242;28;20520;-44
2022/03/14 10:30:27;;;;;;;10.70;3.42;;;10.20;99.90;;;;;;5037553;28;20132;-40
2022/03/14 10:33:10;;;;;;;11.68;3.78;;;10.30;99.90;;;;;;5039182;28;20049;-41
2022/03/14 10:35:38;;;;;;;12.63;4.05;;;10.30;99.90;;;;;;5039540;28;20391;-42
2022/03/14 10:38:07;;;;;;;12.35;3.47;;;10.40;99.90;;;;;;5041248;28;20226;-44
2022/03/14 10:40:36;;;;;;;11.63;3.42;;;10.50;99.90;;;;;;5044900;28;20049;-40
2022/03/14 10:43:05;;;;;;;11.85;3.70;;;10.50;99.90;;;;;;5045465;28;20452;-40
2022/03/14 10:45:32;;;;;;;12.55;3.83;;;10.50;99.90;;;;;;5039514;28;20416;-43
2022/03/14 10:47:58;;;;;;;9.77;4.00;;;10.60;99.90;;;;;;5039387;28;20075;-49
2022/03/14 10:50:35;;;;;;;9.63;4.47;;;10.50;99.90;;;;;;5044611;28;20136;-47
2022/03/14 10:53:06;;;;;;;13.48;5.00;;;10.60;99.90;;;;;;5043485;28;20033;-48
2022/03/14 10:55:40;;;;;;;16.05;5.30;;;10.60;99.90;;;;;;5043273;28;20175;-51
2022/03/14 10:58:11;;;;;;;14.32;5.93;;;10.60;99.90;;;;;;5040325;28;20037;-46
2022/03/14 11:01:04;;;;;;;11.65;5.70;;;10.50;99.90;;;;;;5039507;28;20041;-48
2022/03/14 11:03:35;;;;;;;16.40;6.60;;;10.60;99.90;;;;;;5037695;28;20500;-50
2022/03/14 11:06:04;;;;;;;13.30;6.90;;;10.60;99.90;;;;;;5039729;28;20041;-50
2022/03/14 11:08:35;;;;;;;15.50;7.82;;;10.60;99.90;;;;;;5040409;28;20037;-49
2022/03/14 11:11:06;;;;;;;14.85;7.50;;;10.60;99.90;;;;;;5039587;28;20055;-46
2022/03/14 11:13:46;;;;;;;17.60;8.07;;;10.60;99.90;;;;;;5038369;28;20688;-46
2022/03/14 11:16:12;;;;;;;17.33;8.82;;;10.70;99.90;;;;;;5035403;28;20029;-46
2022/03/14 11:18:39;;;;;;;18.27;9.10;;;10.80;99.90;;;;;;5038033;28;20111;-45
2022/03/14 11:21:08;;;;;;;15.20;9.63;;;10.80;99.90;;;;;;5039396;28;20098;-46
2022/03/14 11:23:36;;;;;;;17.85;10.00;;;10.90;99.90;;;;;;5053708;28;20036;-48
2022/03/14 11:26:02;;;;;;;15.95;9.02;;;10.90;99.90;;;;;;5038241;28;20390;-50
2022/03/14 11:28:34;;;;;;;18.60;11.05;;;10.90;99.90;;;;;;5039548;28;20067;-48
2022/03/14 11:31:01;;;;;;;18.67;10.57;;;11.10;99.90;;;;;;5038354;28;20033;-47
2022/03/14 11:33:31;;;;;;;18.65;11.13;;;11.10;99.90;;;;;;5033448;28;20496;-48
2022/03/14 11:36:00;;;;;;;20.63;12.15;;;11.10;99.90;;;;;;5037854;28;20477;-46
2022/03/14 11:38:29;;;;;;;17.88;11.55;;;11.20;99.90;;;;;;5036816;28;20107;-48
2022/03/14 11:40:57;;;;;;;21.63;13.13;;;11.30;99.90;;;;;;5038737;28;20052;-51
2022/03/14 11:43:23;;;;;;;19.38;12.13;;;11.40;99.90;;;;;;5041559;28;20430;-47
2022/03/14 11:45:50;;;;;;;21.58;14.10;;;11.50;99.90;;;;;;5057464;28;20489;-51
2022/03/14 11:48:17;;;;;;;19.77;12.40;;;11.60;99.90;;;;;;5040958;28;20068;-52
2022/03/14 11:50:47;;;;;;;20.90;13.90;;;11.70;99.90;;;;;;5040511;28;20087;-47
2022/03/14 11:53:22;;;;;;;24.95;12.70;;;11.80;99.90;;;;;;5040581;28;20503;-48
2022/03/14 11:56:01;;;;;;;21.85;12.70;;;11.80;99.90;;;;;;5055864;28;20079;-50
2022/03/14 11:58:28;;;;;;;20.67;13.32;;;12.10;99.90;;;;;;5039988;28;20037;-48
2022/03/14 12:00:53;;;;;;;21.42;12.02;;;12.10;99.90;;;;;;5038113;28;21336;-50
2022/03/14 12:03:37;;;;;;;19.20;12.35;;;12.20;99.90;;;;;;5038545;28;20037;-48
2022/03/14 12:06:04;;;;;;;21.27;12.77;;;12.30;99.90;;;;;;5039833;28;20025;-47
2022/03/14 12:08:32;;;;;;;19.52;12.10;;;12.30;99.90;;;;;;5039611;28;20040;-46
2022/03/14 12:11:31;;;;;;;20.33;12.77;;;12.30;99.90;;;;;;5037121;28;20079;-46
2022/03/14 12:13:57;;;;;;;22.33;12.07;;;12.40;99.90;;;;;;5038917;28;20043;-47
2022/03/14 12:16:41;;;;;;;17.67;11.68;;;12.50;99.90;;;;;;5039686;28;20029;-49
2022/03/14 12:19:38;;;;;;;21.23;12.98;;;12.50;99.90;;;;;;5039490;28;20510;-49
2022/03/14 12:22:06;;;;;;;22.33;12.23;;;12.60;99.90;;;;;;5037490;28;20060;-48
2022/03/14 12:24:37;;;;;;;19.08;11.32;;;12.90;99.90;;;;;;5038550;28;20523;-48
2022/03/14 12:27:24;;;;;;;20.00;9.90;;;12.80;99.90;;;;;;5036922;28;20037;-49
2022/03/14 12:29:52;;;;;;;19.25;9.88;;;12.80;99.90;;;;;;5030398;28;20040;-48
2022/03/14 12:32:40;;;;;;;16.73;9.10;;;13.00;99.90;;;;;;5033373;28;20044;-49
2022/03/14 12:35:19;;;;;;;22.80;10.27;;;13.10;99.90;;;;;;5037870;28;20044;-51
2022/03/14 12:37:52;;;;;;;19.25;11.15;;;13.30;99.90;;;;;;5043261;28;20071;-48
2022/03/14 12:40:21;;;;;;;21.80;10.88;;;13.50;99.90;;;;;;5047840;28;20523;-46
2022/03/14 12:43:11;;;;;;;19.50;10.60;;;13.40;99.90;;;;;;5041338;28;20041;-47
2022/03/14 12:45:42;;;;;;;19.20;9.70;;;13.60;99.90;;;;;;5041525;28;20633;-47
2022/03/14 12:48:27;;;;;;;18.90;10.63;;;13.80;99.90;;;;;;5051753;28;20037;-47